CPX238 Details

Departure: Luis Munoz Marin International Airport (TJSJ)
Arrival: Miami International Airport (KMIA)
Route: ACONY3 PALDE FEKKO Y308 FOWEE FLIPR6


Current Weather Information
TJSJ 250956Z 11004KT 10SM SCT021 SCT030 SCT075 25/22 A2996 RMK AO2 SLP144 VCSH N-NE T02500222 $
KMIA 250953Z 05005KT 10SM SCT033 25/18 A3003 RMK AO2 SLP170 T02500178 $